Time;durP1;ratioP1;P1;durP2;ratioP2;P2;SDS_P1;SDS_P2;PMS_P1;PMS_P2;Temp;Humidity;BMP_temperature;BMP_pressure;BME280_temperature;BME280_humidity;BME280_pressure;Samples;Min_cycle;Max_cycle;Signal;HPM_P1;HPM_P2
2022/06/26 00:02:17;;;;;;;12.43;11.43;;;;;;;22.54;70.07;100856.50;5064292;28;20218;-69
2022/06/26 00:04:44;;;;;;;13.60;12.40;;;;;;;22.98;69.24;100849.50;5064632;28;20400;-69
2022/06/26 00:07:09;;;;;;;12.80;11.80;;;;;;;22.98;69.40;100846.84;5064174;28;20169;-69
2022/06/26 00:09:34;;;;;;;13.03;11.93;;;;;;;22.68;70.67;100860.41;5063902;28;20426;-69
2022/06/26 00:12:00;;;;;;;12.93;11.83;;;;;;;22.97;68.97;100853.94;5064783;28;20153;-69
2022/06/26 00:14:25;;;;;;;13.50;12.30;;;;;;;22.95;68.81;100862.88;5064055;28;20169;-69
2022/06/26 00:16:51;;;;;;;13.20;12.20;;;;;;;23.18;68.30;100859.34;5064137;28;20166;-71
2022/06/26 00:19:17;;;;;;;14.40;13.00;;;;;;;23.10;68.62;100858.78;5065441;28;20171;-70
2022/06/26 00:21:42;;;;;;;13.77;12.67;;;;;;;23.29;67.47;100862.41;5065366;28;20287;-69
2022/06/26 00:24:07;;;;;;;13.53;12.53;;;;;;;23.32;67.46;100854.31;5064307;28;20432;-70
2022/06/26 00:26:33;;;;;;;12.83;11.93;;;;;;;23.00;68.08;100852.94;5064473;28;20264;-69
2022/06/26 00:28:58;;;;;;;15.00;13.80;;;;;;;23.18;67.30;100844.25;5064270;28;20535;-69
2022/06/26 00:31:24;;;;;;;14.00;12.87;;;;;;;22.98;68.39;100839.72;5063914;28;20196;-70
2022/06/26 00:33:49;;;;;;;13.00;11.90;;;;;;;23.11;68.10;100842.75;5062175;28;20188;-69
2022/06/26 00:36:14;;;;;;;14.00;12.90;;;;;;;22.63;68.46;100843.78;5061070;28;20212;-68
2022/06/26 00:38:40;;;;;;;11.60;10.60;;;;;;;22.68;69.70;100841.81;5060689;28;20193;-67
2022/06/26 00:41:06;;;;;;;12.37;11.47;;;;;;;22.82;68.66;100834.13;5060411;28;20189;-69
2022/06/26 00:43:31;;;;;;;13.10;12.00;;;;;;;23.14;67.58;100833.81;5060811;28;20413;-68
2022/06/26 00:45:57;;;;;;;12.03;11.13;;;;;;;23.00;67.81;100834.31;5060864;28;20174;-70
2022/06/26 00:48:22;;;;;;;11.90;11.00;;;;;;;23.03;67.92;100839.53;5060478;28;20444;-70
2022/06/26 00:50:48;;;;;;;12.43;11.53;;;;;;;22.90;68.14;100835.66;5060796;28;20169;-69
2022/06/26 00:53:13;;;;;;;11.80;10.90;;;;;;;23.33;66.61;100828.59;5059822;28;20173;-71
2022/06/26 00:55:39;;;;;;;11.73;10.73;;;;;;;22.88;67.42;100825.94;5060403;28;20158;-72
2022/06/26 00:58:04;;;;;;;12.23;11.23;;;;;;;23.26;66.05;100835.06;5059884;28;20531;-68
2022/06/26 01:00:30;;;;;;;12.43;11.43;;;;;;;22.96;67.24;100835.38;5059772;28;20205;-68
2022/06/26 01:02:55;;;;;;;12.40;11.40;;;;;;;22.47;69.07;100840.84;5060780;28;20603;-69
2022/06/26 01:05:20;;;;;;;11.90;10.90;;;;;;;23.16;66.77;100835.44;5060498;28;20170;-70
2022/06/26 01:07:46;;;;;;;12.27;11.27;;;;;;;23.28;65.74;100838.56;5060368;28;20256;-69
2022/06/26 01:10:11;;;;;;;13.00;11.90;;;;;;;23.09;66.35;100838.41;5060704;28;20166;-69
2022/06/26 01:12:37;;;;;;;12.07;11.10;;;;;;;23.28;66.41;100828.75;5060206;28;20173;-70
2022/06/26 01:15:06;;;;;;;12.37;11.40;;;;;;;22.83;67.92;100835.03;5060231;28;20221;-70
2022/06/26 01:17:32;;;;;;;11.83;10.93;;;;;;;22.77;68.40;100841.47;5060834;28;20227;-71
2022/06/26 01:19:58;;;;;;;13.17;12.00;;;;;;;23.15;67.39;100846.16;5059633;28;20877;-71
2022/06/26 01:22:28;;;;;;;11.57;10.53;;;;;;;22.85;68.46;100836.69;5060030;28;20192;-71
2022/06/26 01:24:54;;;;;;;12.10;11.10;;;;;;;23.04;67.88;100841.25;5060130;28;20542;-69
2022/06/26 01:27:19;;;;;;;11.70;10.80;;;;;;;23.16;67.43;100846.09;5059854;28;20442;-71
2022/06/26 01:29:44;;;;;;;12.17;11.17;;;;;;;23.01;68.72;100836.91;5059819;28;20253;-69
2022/06/26 01:32:10;;;;;;;12.70;11.70;;;;;;;23.16;67.90;100843.44;5060418;28;20162;-71
2022/06/26 01:34:35;;;;;;;11.60;10.80;;;;;;;23.10;68.01;100845.47;5059777;28;20169;-71
2022/06/26 01:37:02;;;;;;;12.43;11.20;;;;;;;23.09;68.39;100854.38;5059791;28;20165;-70
2022/06/26 01:39:27;;;;;;;12.13;11.23;;;;;;;22.49;70.00;100860.28;5060019;28;20181;-71
2022/06/26 01:41:52;;;;;;;12.63;11.63;;;;;;;22.85;68.76;100854.41;5059785;28;20412;-69
2022/06/26 01:44:18;;;;;;;12.23;11.40;;;;;;;22.67;69.44;100854.22;5059709;28;20173;-69
2022/06/26 01:46:43;;;;;;;12.10;11.20;;;;;;;22.81;68.99;100858.13;5059066;28;20307;-69
2022/06/26 01:49:08;;;;;;;12.13;11.00;;;;;;;22.63;69.43;100859.72;5059676;28;20166;-69
2022/06/26 01:51:34;;;;;;;12.60;11.60;;;;;;;22.91;69.04;100855.97;5058756;28;20172;-68
2022/06/26 01:53:59;;;;;;;12.43;11.63;;;;;;;22.39;70.80;100859.72;5059692;28;20170;-68
2022/06/26 01:56:25;;;;;;;13.77;12.67;;;;;;;22.46;70.58;100865.69;5062735;28;20199;-68
2022/06/26 01:58:51;;;;;;;13.13;12.03;;;;;;;22.64;70.09;100861.47;5062753;28;20251;-71
2022/06/26 02:01:17;;;;;;;13.27;12.17;;;;;;;22.77;69.45;100862.72;5060004;28;20858;-70
2022/06/26 02:03:42;;;;;;;13.43;12.33;;;;;;;22.88;68.99;100863.16;5059272;28;20429;-70
2022/06/26 02:06:08;;;;;;;13.57;12.57;;;;;;;22.80;69.72;100857.28;5057773;28;20252;-70
2022/06/26 02:08:33;;;;;;;13.57;12.47;;;;;;;22.73;69.75;100857.56;5057630;28;20232;-69
2022/06/26 02:13:43;;;;;;;14.17;13.10;;;;;;;22.90;69.00;100848.94;5059134;28;20368;-68
2022/06/26 02:16:23;;;;;;;13.23;12.13;;;;;;;22.97;68.67;100853.06;5058946;28;20468;-69
2022/06/26 02:18:54;;;;;;;15.03;13.83;;;;;;;22.59;70.38;100847.50;5059178;28;20462;-68
2022/06/26 02:21:21;;;;;;;14.00;12.90;;;;;;;22.75;69.54;100842.44;5059037;28;20490;-68
2022/06/26 02:23:48;;;;;;;13.73;12.63;;;;;;;22.53;70.32;100845.94;5054379;28;20432;-68
2022/06/26 02:26:14;;;;;;;14.43;13.23;;;;;;;22.30;72.12;100844.09;5059412;28;20739;-69
2022/06/26 02:28:40;;;;;;;14.40;13.20;;;;;;;22.28;72.31;100854.78;5057429;28;20429;-69
2022/06/26 02:31:06;;;;;;;14.23;13.13;;;;;;;22.43;70.89;100850.72;5054790;28;20444;-68
2022/06/26 02:33:32;;;;;;;13.53;12.63;;;;;;;22.54;70.78;100845.88;5038540;28;20500;-69
2022/06/26 02:35:59;;;;;;;14.10;13.00;;;;;;;22.63;70.46;100851.75;5058722;28;20515;-70
2022/06/26 02:38:24;;;;;;;13.93;12.83;;;;;;;22.47;71.28;100852.34;5055667;28;20428;-70
2022/06/26 02:40:50;;;;;;;15.00;13.90;;;;;;;22.56;71.42;100850.28;5056267;28;20448;-69
2022/06/26 02:43:18;;;;;;;15.07;13.77;;;;;;;22.60;70.80;100855.41;5052955;28;20178;-68
2022/06/26 02:45:44;;;;;;;14.87;13.77;;;;;;;22.46;71.14;100861.25;5057993;28;20889;-70
2022/06/26 02:48:09;;;;;;;15.10;14.00;;;;;;;22.29;71.23;100853.03;5058998;28;20495;-69
2022/06/26 02:50:35;;;;;;;15.53;14.33;;;;;;;22.32;71.83;100858.22;5058147;28;20165;-69
2022/06/26 02:53:00;;;;;;;15.10;13.80;;;;;;;22.10;72.45;100860.81;5058647;28;20424;-68
2022/06/26 02:55:25;;;;;;;15.80;14.50;;;;;;;22.25;72.24;100867.34;5058802;28;20433;-69
2022/06/26 02:57:51;;;;;;;15.17;14.00;;;;;;;22.58;70.63;100853.72;5058163;28;20182;-70
2022/06/26 03:00:16;;;;;;;15.60;14.10;;;;;;;22.72;70.20;100867.34;5058191;28;20255;-69
2022/06/26 03:02:42;;;;;;;15.80;14.67;;;;;;;22.49;71.10;100869.09;5058771;28;20248;-70
2022/06/26 03:05:08;;;;;;;14.70;13.60;;;;;;;22.43;71.09;100865.81;5058142;28;20197;-69
2022/06/26 03:07:33;;;;;;;14.80;13.40;;;;;;;22.48;71.06;100864.69;5058295;28;20173;-69
2022/06/26 03:09:59;;;;;;;14.57;13.43;;;;;;;22.23;72.02;100866.50;5058228;28;20432;-70
2022/06/26 03:12:24;;;;;;;15.87;14.57;;;;;;;22.44;71.43;100870.19;5057867;28;20182;-69
2022/06/26 03:14:49;;;;;;;15.47;14.20;;;;;;;22.49;70.97;100869.09;5055150;28;20225;-70
2022/06/26 03:17:15;;;;;;;14.57;13.37;;;;;;;22.36;71.81;100870.47;5058232;28;20470;-70
2022/06/26 03:19:41;;;;;;;15.00;13.83;;;;;;;22.49;71.83;100866.44;5055887;28;20863;-69
2022/06/26 03:22:07;;;;;;;14.97;13.77;;;;;;;22.28;71.62;100873.38;5056128;28;20690;-70
2022/06/26 03:24:32;;;;;;;14.70;13.60;;;;;;;22.48;71.29;100866.50;5050410;28;20441;-69
2022/06/26 03:26:58;;;;;;;15.27;14.17;;;;;;;22.44;71.11;100862.22;5050923;28;20196;-69
2022/06/26 03:29:24;;;;;;;13.90;12.90;;;;;;;22.45;70.73;100862.16;5050672;28;20182;-69
2022/06/26 03:31:50;;;;;;;15.40;14.20;;;;;;;21.86;72.52;100866.91;5049749;28;20249;-69
2022/06/26 03:34:15;;;;;;;14.60;13.30;;;;;;;21.86;73.45;100866.91;5050400;28;20507;-69
2022/06/26 03:36:41;;;;;;;15.20;14.00;;;;;;;22.34;71.57;100862.56;5049865;28;20268;-68
2022/06/26 03:39:06;;;;;;;15.63;14.37;;;;;;;22.32;71.50;100863.53;5051599;28;20523;-70
2022/06/26 03:41:31;;;;;;;15.03;13.90;;;;;;;21.99;72.10;100862.06;5052476;28;20208;-69
2022/06/26 03:43:57;;;;;;;16.40;15.13;;;;;;;22.36;71.54;100866.03;5052753;28;20191;-70
2022/06/26 03:46:22;;;;;;;15.57;14.27;;;;;;;22.51;70.64;100864.56;5056109;28;20523;-70
2022/06/26 03:48:48;;;;;;;15.60;14.30;;;;;;;22.12;72.24;100870.44;5056792;28;20197;-69
2022/06/26 03:51:13;;;;;;;15.00;13.80;;;;;;;22.36;71.20;100865.16;5056909;28;20214;-69
2022/06/26 03:53:39;;;;;;;15.03;13.83;;;;;;;22.35;70.61;100859.00;5056165;28;20601;-68
2022/06/26 03:56:04;;;;;;;14.30;13.20;;;;;;;22.12;70.85;100866.91;5057254;28;20173;-69
2022/06/26 03:58:30;;;;;;;15.00;13.80;;;;;;;22.66;70.04;100871.13;5057816;28;20260;-69
2022/06/26 04:00:57;;;;;;;15.70;14.23;;;;;;;23.31;67.54;100860.56;5057977;28;20201;-70
2022/06/26 04:03:22;;;;;;;14.27;13.17;;;;;;;23.14;67.11;100866.59;5057717;28;20174;-71
2022/06/26 04:05:48;;;;;;;13.97;12.87;;;;;;;23.23;66.32;100867.13;5057705;28;20446;-70
2022/06/26 04:08:14;;;;;;;13.13;12.10;;;;;;;23.62;64.85;100863.72;5057956;28;20264;-69
2022/06/26 04:10:39;;;;;;;13.30;12.17;;;;;;;25.26;60.68;100858.88;5061640;28;20318;-70
2022/06/26 04:13:07;;;;;;;13.63;12.63;;;;;;;25.16;59.06;100862.00;5060909;28;20423;-70
2022/06/26 04:15:34;;;;;;;12.87;11.87;;;;;;;25.53;58.70;100860.19;5061408;28;20571;-72
2022/06/26 04:18:00;;;;;;;12.03;11.13;;;;;;;25.63;58.23;100859.72;5061407;28;20415;-70
2022/06/26 04:20:26;;;;;;;12.13;11.23;;;;;;;26.30;56.49;100862.44;5061267;28;20546;-70
2022/06/26 04:23:05;;;;;;;12.10;11.20;;;;;;;26.76;54.98;100856.38;5061162;28;20848;-69
2022/06/26 04:25:32;;;;;;;11.97;10.97;;;;;;;26.32;56.02;100852.53;5041411;28;20208;-70
2022/06/26 04:27:58;;;;;;;12.70;11.80;;;;;;;24.72;60.44;100859.69;5041263;28;20444;-70
2022/06/26 04:30:24;;;;;;;12.90;12.00;;;;;;;24.68;61.08;100860.78;5056936;28;20869;-70
2022/06/26 04:32:49;;;;;;;11.87;11.00;;;;;;;25.97;57.21;100849.94;5060973;28;20174;-70
2022/06/26 04:35:15;;;;;;;12.50;11.40;;;;;;;25.74;57.23;100852.00;5060904;28;20192;-70
2022/06/26 04:37:41;;;;;;;12.60;11.50;;;;;;;25.69;57.48;100854.91;5060911;28;20564;-70
2022/06/26 04:40:09;;;;;;;11.83;11.03;;;;;;;26.31;56.22;100849.00;5061221;28;20550;-71
2022/06/26 04:42:35;;;;;;;12.50;11.40;;;;;;;27.43;53.04;100857.00;5060501;28;20264;-70
2022/06/26 04:45:00;;;;;;;11.53;10.73;;;;;;;27.25;53.07;100847.31;5060809;28;20515;-71
2022/06/26 04:47:26;;;;;;;12.40;11.43;;;;;;;27.75;52.08;100848.81;5060397;28;20174;-71
2022/06/26 04:49:52;;;;;;;12.10;11.00;;;;;;;27.75;51.14;100850.63;5060582;28;20189;-71
2022/06/26 04:52:17;;;;;;;12.40;11.47;;;;;;;28.46;49.57;100857.00;5060551;28;20515;-71
2022/06/26 04:54:43;;;;;;;11.43;10.63;;;;;;;29.35;47.28;100855.69;5060465;28;20239;-70
2022/06/26 04:57:09;;;;;;;11.53;10.63;;;;;;;27.94;50.38;100863.75;5060221;28;20190;-71
2022/06/26 04:59:34;;;;;;;11.90;11.10;;;;;;;27.83;51.21;100865.31;5060353;28;20443;-70
2022/06/26 05:02:00;;;;;;;11.20;10.40;;;;;;;27.44;52.15;100872.09;5061091;28;20422;-70
2022/06/26 05:04:25;;;;;;;12.27;11.37;;;;;;;27.10;52.95;100865.16;5060219;28;20185;-69
2022/06/26 05:06:51;;;;;;;12.33;11.53;;;;;;;28.02;50.87;100866.84;5060627;28;20181;-71
2022/06/26 05:09:16;;;;;;;12.43;11.23;;;;;;;28.47;48.48;100864.06;5060922;28;20177;-71
2022/06/26 05:11:45;;;;;;;11.10;10.30;;;;;;;28.97;47.56;100865.31;5060328;28;20539;-70
2022/06/26 05:14:10;;;;;;;11.20;10.40;;;;;;;29.02;47.37;100865.91;5058957;28;20192;-70
2022/06/26 05:16:36;;;;;;;11.20;10.30;;;;;;;29.61;45.68;100858.44;5060217;28;20452;-70
2022/06/26 05:19:02;;;;;;;10.87;10.07;;;;;;;30.03;44.88;100868.03;5059957;28;20205;-70
2022/06/26 05:21:28;;;;;;;10.27;9.57;;;;;;;30.68;43.39;100860.72;5060138;28;20607;-70
2022/06/26 05:23:53;;;;;;;10.80;10.00;;;;;;;29.63;45.51;100859.16;5058747;28;20515;-70
2022/06/26 05:26:18;;;;;;;10.90;10.10;;;;;;;30.21;44.58;100862.31;5028658;28;20182;-70
2022/06/26 05:28:44;;;;;;;10.60;9.80;;;;;;;31.28;41.93;100855.41;5023195;28;20197;-70
2022/06/26 05:31:10;;;;;;;10.80;9.97;;;;;;;30.35;44.13;100867.56;5039879;28;20175;-69
2022/06/26 05:33:35;;;;;;;10.70;9.90;;;;;;;30.43;43.59;100864.31;5046617;28;20174;-70
2022/06/26 05:36:00;;;;;;;10.53;9.83;;;;;;;30.00;43.92;100868.25;5048742;28;20261;-71
2022/06/26 05:38:26;;;;;;;10.83;10.03;;;;;;;29.23;46.62;100862.72;5039716;28;20281;-71
2022/06/26 05:40:51;;;;;;;10.03;9.23;;;;;;;31.36;41.15;100857.53;5039969;28;20202;-72
2022/06/26 05:43:16;;;;;;;9.90;9.20;;;;;;;31.66;40.80;100858.84;5050617;28;20225;-72
2022/06/26 05:45:42;;;;;;;9.73;9.13;;;;;;;31.28;41.54;100860.78;5059727;28;20174;-72
2022/06/26 05:48:08;;;;;;;9.83;9.07;;;;;;;33.06;37.87;100854.88;5042093;28;20173;-73
2022/06/26 05:50:33;;;;;;;9.43;8.70;;;;;;;32.46;38.75;100863.34;5044112;28;20261;-72
2022/06/26 05:52:58;;;;;;;9.27;8.43;;;;;;;33.74;36.68;100865.34;5039384;28;20213;-73
2022/06/26 05:55:24;;;;;;;9.87;9.07;;;;;;;34.21;35.29;100862.19;5039600;28;20220;-73
2022/06/26 05:57:50;;;;;;;8.37;7.77;;;;;;;32.21;38.29;100864.47;5039832;28;20458;-73
2022/06/26 06:00:15;;;;;;;9.07;8.37;;;;;;;31.03;41.31;100862.66;5039409;28;20449;-74
2022/06/26 06:02:41;;;;;;;8.57;7.97;;;;;;;30.01;42.71;100869.97;5036687;28;20535;-71
2022/06/26 06:05:07;;;;;;;9.03;8.27;;;;;;;28.87;46.08;100872.25;5034499;28;20181;-71
2022/06/26 06:07:33;;;;;;;9.80;9.10;;;;;;;27.20;50.17;100871.69;5029452;28;20174;-70
2022/06/26 06:09:58;;;;;;;10.63;9.67;;;;;;;26.83;50.94;100884.50;5039289;28;20427;-70
2022/06/26 06:12:23;;;;;;;10.37;9.60;;;;;;;27.64;49.80;100872.72;5041661;28;20165;-70
2022/06/26 06:14:49;;;;;;;10.97;9.90;;;;;;;27.66;50.21;100877.03;5042251;28;20218;-71
2022/06/26 06:19:58;;;;;;;11.10;10.20;;;;;;;26.45;52.77;100892.81;5057649;28;23131;-70
2022/06/26 06:22:23;;;;;;;11.03;10.23;;;;;;;27.52;50.58;100888.56;5058532;28;20498;-71
2022/06/26 06:24:49;;;;;;;11.43;10.40;;;;;;;27.39;50.91;100895.59;5059393;28;20504;-71
2022/06/26 06:27:14;;;;;;;13.33;12.03;;;;;;;27.62;50.54;100896.91;5058542;28;20257;-69
2022/06/26 06:29:39;;;;;;;11.77;10.83;;;;;;;27.33;51.50;100894.13;5058597;28;20181;-70
2022/06/26 06:32:05;;;;;;;10.63;9.80;;;;;;;29.44;46.53;100891.81;5057901;28;20205;-71
2022/06/26 06:34:30;;;;;;;10.90;10.00;;;;;;;31.64;40.65;100882.41;5057055;28;20181;-71
2022/06/26 06:36:56;;;;;;;10.70;9.90;;;;;;;31.15;41.84;100895.00;5058154;28;20170;-71
2022/06/26 06:39:21;;;;;;;9.93;9.13;;;;;;;32.99;38.86;100891.47;5058776;28;20166;-71
2022/06/26 06:41:47;;;;;;;9.00;8.30;;;;;;;33.13;37.89;100888.47;5058222;28;20212;-71
2022/06/26 06:44:12;;;;;;;8.73;8.10;;;;;;;34.79;35.36;100885.88;5057980;28;20582;-71
2022/06/26 06:46:37;;;;;;;8.60;8.00;;;;;;;31.80;39.95;100896.38;5058930;28;20244;-71
2022/06/26 06:49:03;;;;;;;8.00;7.40;;;;;;;32.37;39.08;100896.47;5059277;28;20267;-71
2022/06/26 06:51:28;;;;;;;9.13;7.67;;;;;;;30.29;41.77;100904.81;5058164;28;20307;-71
2022/06/26 06:53:53;;;;;;;8.50;7.80;;;;;;;31.31;40.37;100905.50;5058716;28;20181;-71
2022/06/26 06:56:19;;;;;;;8.13;7.63;;;;;;;32.85;37.91;100904.25;5058397;28;20169;-71
2022/06/26 06:58:44;;;;;;;7.97;7.37;;;;;;;32.76;38.74;100905.03;5058226;28;20481;-71
2022/06/26 07:01:09;;;;;;;8.70;8.10;;;;;;;32.80;37.60;100911.03;5059005;28;20201;-70
2022/06/26 07:03:35;;;;;;;8.23;7.63;;;;;;;33.95;35.71;100915.88;5057852;28;20177;-71
2022/06/26 07:06:00;;;;;;;7.80;7.20;;;;;;;33.33;35.58;100921.09;5058236;28;20443;-70
2022/06/26 07:08:26;;;;;;;8.10;7.03;;;;;;;35.15;33.68;100916.03;5058649;28;20170;-71
2022/06/26 07:10:51;;;;;;;7.60;7.10;;;;;;;35.75;32.61;100912.31;5058050;28;20189;-71
2022/06/26 07:13:16;;;;;;;7.43;6.93;;;;;;;34.90;34.03;100912.88;5057464;28;20536;-70
2022/06/26 07:15:42;;;;;;;7.83;7.23;;;;;;;35.38;32.42;100923.91;5046811;28;20248;-72
2022/06/26 07:18:07;;;;;;;7.73;6.93;;;;;;;33.19;35.86;100919.50;5047737;28;20188;-71
2022/06/26 07:20:33;;;;;;;7.40;6.80;;;;;;;35.47;33.02;100905.94;5046435;28;20216;-70
2022/06/26 07:22:58;;;;;;;7.60;7.10;;;;;;;35.23;33.17;100923.44;5057679;28;20173;-70
2022/06/26 07:25:23;;;;;;;8.17;7.57;;;;;;;36.42;31.32;100921.28;5057383;28;20254;-70
2022/06/26 07:27:49;;;;;;;7.47;6.87;;;;;;;35.33;32.79;100929.78;5057827;28;20177;-70
2022/06/26 07:30:15;;;;;;;7.67;6.97;;;;;;;34.00;34.73;100933.41;5057930;28;20605;-70
2022/06/26 07:32:41;;;;;;;7.90;7.40;;;;;;;36.27;31.30;100914.63;5057154;28;20514;-71
2022/06/26 07:35:07;;;;;;;7.67;6.97;;;;;;;37.00;30.33;100918.41;5057227;28;20590;-70
2022/06/26 07:37:32;;;;;;;7.10;6.60;;;;;;;35.72;32.34;100921.59;5056873;28;20796;-71
2022/06/26 07:39:58;;;;;;;7.17;6.67;;;;;;;35.99;32.00;100921.84;5056915;28;20455;-71
2022/06/26 07:42:24;;;;;;;7.63;7.13;;;;;;;36.72;31.12;100932.88;5057960;28;20219;-70
2022/06/26 07:44:49;;;;;;;7.73;6.97;;;;;;;34.51;33.98;100939.81;5061790;28;20415;-70
2022/06/26 07:47:15;;;;;;;8.30;7.60;;;;;;;35.34;33.42;100936.03;5061653;28;20425;-71
2022/06/26 07:49:40;;;;;;;7.93;7.30;;;;;;;37.17;29.87;100936.59;5062156;28;20187;-70
2022/06/26 07:52:05;;;;;;;7.43;6.83;;;;;;;35.03;32.90;100939.72;5061338;28;20177;-71
2022/06/26 07:54:31;;;;;;;6.87;6.37;;;;;;;37.91;29.17;100937.25;5061387;28;20184;-70
2022/06/26 07:56:56;;;;;;;8.80;6.20;;;;;;;37.33;29.56;100938.63;5062028;28;20172;-70
2022/06/26 07:59:22;;;;;;;8.30;6.23;;;;;;;36.18;30.79;100945.34;5061697;28;20170;-70
2022/06/26 08:01:48;;;;;;;6.87;6.27;;;;;;;37.85;28.36;100939.78;5061021;28;20613;-72
2022/06/26 08:04:13;;;;;;;6.73;6.17;;;;;;;38.26;27.32;100937.31;5061227;28;20424;-71
2022/06/26 08:06:38;;;;;;;7.27;6.47;;;;;;;39.15;26.34;100940.53;5061058;28;20216;-73
2022/06/26 08:09:04;;;;;;;5.67;4.83;;;;;;;35.91;29.17;100947.88;5060678;28;20177;-73
2022/06/26 08:11:30;;;;;;;5.90;5.47;;;;;;;36.20;28.74;100944.22;5060218;28;20219;-71
2022/06/26 08:13:55;;;;;;;6.03;5.50;;;;;;;36.50;28.60;100955.84;5059900;28;20165;-72
2022/06/26 08:16:20;;;;;;;4.83;4.40;;;;;;;34.49;29.82;100952.66;5048889;28;20229;-70
2022/06/26 08:18:46;;;;;;;4.27;3.97;;;;;;;35.66;27.62;100962.00;5041722;28;20173;-71
2022/06/26 08:23:56;;;;;;;4.10;3.70;;;;;;;36.55;26.29;100971.69;5041025;28;20571;-70
2022/06/26 08:26:21;;;;;;;5.63;3.77;;;;;;;36.10;26.04;100965.09;5053411;28;20432;-69
2022/06/26 08:28:47;;;;;;;4.17;3.97;;;;;;;36.41;26.67;100975.75;5041042;28;20166;-70
2022/06/26 08:31:13;;;;;;;4.07;3.77;;;;;;;36.68;25.92;100971.34;5038897;28;20185;-70
2022/06/26 08:33:38;;;;;;;4.30;4.00;;;;;;;36.81;25.70;100974.59;5022956;28;20213;-69
2022/06/26 08:36:04;;;;;;;3.97;3.77;;;;;;;37.51;25.15;100971.28;5039911;28;20513;-69
2022/06/26 08:38:30;;;;;;;3.83;3.53;;;;;;;37.25;26.02;100971.16;5040516;28;20181;-69
2022/06/26 08:40:58;;;;;;;4.07;3.77;;;;;;;36.74;26.83;100968.03;5040572;28;20576;-70
2022/06/26 08:43:25;;;;;;;4.33;4.03;;;;;;;37.13;26.95;100965.09;5040309;28;20439;-71
2022/06/26 08:45:53;;;;;;;4.43;4.00;;;;;;;33.77;30.27;100967.81;5038673;28;20526;-69
2022/06/26 08:48:20;;;;;;;4.20;3.90;;;;;;;33.00;31.85;100974.19;5022862;28;20568;-70
2022/06/26 08:50:45;;;;;;;4.77;4.37;;;;;;;33.41;31.60;100975.38;5041277;28;20440;-69
2022/06/26 08:53:11;;;;;;;4.10;3.80;;;;;;;33.71;30.22;100980.03;5034529;28;20421;-70
2022/06/26 08:55:37;;;;;;;5.90;4.33;;;;;;;34.50;29.64;100975.16;5040568;28;20188;-71
2022/06/26 08:58:02;;;;;;;7.43;4.30;;;;;;;33.35;31.15;100979.41;5034382;28;20583;-72
2022/06/26 09:00:29;;;;;;;4.73;4.33;;;;;;;33.38;31.42;100983.72;5039134;28;20195;-70
2022/06/26 09:02:54;;;;;;;4.60;4.30;;;;;;;33.70;31.01;100977.44;5032490;28;20272;-71
2022/06/26 09:05:20;;;;;;;4.70;4.40;;;;;;;33.70;31.15;100981.00;5035515;28;20524;-71
2022/06/26 09:07:52;;;;;;;5.60;4.60;;;;;;;33.53;31.40;100979.75;5034950;28;20198;-71
2022/06/26 09:10:17;;;;;;;5.03;4.63;;;;;;;33.32;31.85;100981.53;5037962;28;21244;-70
2022/06/26 09:12:53;;;;;;;4.70;4.40;;;;;;;33.53;32.46;100982.44;5038736;28;20437;-70
2022/06/26 09:15:20;;;;;;;5.67;4.60;;;;;;;34.44;30.94;100987.38;5047058;28;20216;-69
2022/06/26 09:18:01;;;;;;;5.03;4.73;;;;;;;33.55;31.86;100985.84;5059002;28;20416;-70
2022/06/26 09:20:27;;;;;;;6.33;4.70;;;;;;;33.66;32.30;100990.34;5058758;28;20729;-70
2022/06/26 09:22:55;;;;;;;5.00;4.60;;;;;;;33.67;32.21;100992.09;5059018;28;20522;-70
2022/06/26 09:25:20;;;;;;;4.87;4.47;;;;;;;34.13;31.93;100995.44;5059317;28;20448;-70
2022/06/26 09:27:46;;;;;;;4.30;4.00;;;;;;;34.31;31.30;100997.56;5058711;28;20513;-70
2022/06/26 09:30:11;;;;;;;7.20;5.03;;;;;;;35.06;30.91;100998.16;5057582;28;20182;-69
2022/06/26 09:32:37;;;;;;;6.23;4.93;;;;;;;35.73;29.33;100998.41;5058780;28;20480;-70
2022/06/26 09:35:02;;;;;;;5.80;4.73;;;;;;;36.06;29.31;101001.66;5059710;28;20177;-69
2022/06/26 09:37:38;;;;;;;5.83;4.93;;;;;;;35.83;29.23;101007.44;5054847;28;20185;-70
2022/06/26 09:40:04;;;;;;;4.67;4.37;;;;;;;35.13;29.55;101022.84;5055956;28;20200;-70
2022/06/26 09:42:32;;;;;;;4.87;4.33;;;;;;;34.64;30.49;101014.53;5058057;28;20435;-70
2022/06/26 09:44:59;;;;;;;5.73;4.50;;;;;;;34.02;31.82;101023.41;5058080;28;20463;-69
2022/06/26 09:47:30;;;;;;;4.97;4.50;;;;;;;34.01;31.61;101028.97;5054669;28;20465;-70
2022/06/26 09:50:02;;;;;;;5.00;4.70;;;;;;;33.54;32.95;101035.53;5056100;28;20422;-70
2022/06/26 09:52:30;;;;;;;6.00;4.83;;;;;;;33.69;32.16;101019.88;5042435;28;20438;-70
2022/06/26 09:54:56;;;;;;;4.63;4.33;;;;;;;33.30;32.80;101021.31;5054788;28;20837;-69
2022/06/26 09:57:21;;;;;;;4.87;4.50;;;;;;;34.90;31.15;101021.22;5057599;28;20436;-70
2022/06/26 09:59:47;;;;;;;5.10;4.67;;;;;;;34.53;31.14;101019.06;5057474;28;20481;-70
2022/06/26 10:07:49;;;;;;;5.60;5.10;;;;;;;32.64;33.61;101040.94;5054298;28;20434;-69
2022/06/26 10:10:19;;;;;;;5.07;4.33;;;;;;;32.65;33.69;101042.69;5059036;28;20883;-70
2022/06/26 10:12:48;;;;;;;5.50;5.00;;;;;;;31.65;34.86;101040.41;5046029;28;20432;-69
2022/06/26 10:15:15;;;;;;;6.00;4.57;;;;;;;31.58;35.10;101035.47;5058459;28;20468;-69
2022/06/26 10:18:15;;;;;;;6.10;5.50;;;;;;;31.53;35.88;101045.72;5056777;28;20527;-69
2022/06/26 10:20:41;;;;;;;6.13;5.53;;;;;;;31.91;35.24;101047.38;5040768;28;20952;-70
2022/06/26 10:23:09;;;;;;;5.97;5.00;;;;;;;31.59;36.10;101052.47;5054243;28;20455;-69
2022/06/26 10:25:45;;;;;;;5.10;4.70;;;;;;;32.72;33.41;101057.47;5049504;28;20455;-68
2022/06/26 10:28:18;;;;;;;4.90;4.30;;;;;;;33.22;32.01;101052.50;5052664;28;20438;-69
2022/06/26 10:30:44;;;;;;;4.67;4.37;;;;;;;33.32;32.05;101065.31;5049197;28;20683;-69
2022/06/26 10:33:14;;;;;;;4.60;4.30;;;;;;;33.21;32.38;101058.88;5049271;28;20469;-69
2022/06/26 10:35:57;;;;;;;4.73;4.33;;;;;;;33.03;33.03;101060.38;5055434;28;20440;-70
2022/06/26 10:38:27;;;;;;;4.97;4.63;;;;;;;33.11;34.29;101068.75;5044482;28;20852;-70
2022/06/26 10:44:05;;;;;;;6.13;4.90;;;;;;;34.62;32.26;101067.97;5042560;28;20438;-71
2022/06/26 10:46:36;;;;;;;5.77;5.37;;;;;;;35.17;30.71;101073.94;5056963;28;20412;-70
2022/06/26 10:49:05;;;;;;;6.53;5.60;;;;;;;34.78;31.74;101075.63;5046088;28;20882;-70
2022/06/26 10:51:30;;;;;;;5.70;5.30;;;;;;;34.36;31.75;101068.41;5050631;28;20847;-70
2022/06/26 10:53:56;;;;;;;5.80;5.40;;;;;;;35.65;31.07;101068.78;5049549;28;20522;-70
2022/06/26 10:56:23;;;;;;;6.03;5.53;;;;;;;34.63;32.19;101069.66;5044167;28;20196;-69
2022/06/26 10:58:58;;;;;;;6.30;5.90;;;;;;;33.43;33.95;101062.56;5051801;28;20169;-68
2022/06/26 11:01:24;;;;;;;4.80;4.43;;;;;;;35.31;31.54;101069.97;5043296;28;20761;-68
2022/06/26 11:03:49;;;;;;;5.70;5.30;;;;;;;34.90;31.61;101071.84;5053141;28;20471;-69
2022/06/26 11:06:15;;;;;;;6.63;5.50;;;;;;;33.63;33.01;101073.59;5043203;28;20432;-71
2022/06/26 11:08:51;;;;;;;5.23;4.83;;;;;;;33.79;32.23;101067.75;5049294;28;20174;-70
2022/06/26 11:11:20;;;;;;;6.07;5.17;;;;;;;35.34;30.55;101067.00;5049929;28;20184;-69
2022/06/26 11:13:56;;;;;;;5.50;5.10;;;;;;;34.10;31.89;101067.88;5051490;28;20703;-69
2022/06/26 11:16:33;;;;;;;5.43;5.13;;;;;;;35.64;30.12;101067.94;5043462;28;20552;-68
2022/06/26 11:19:00;;;;;;;5.97;5.37;;;;;;;34.41;31.68;101068.81;5046268;28;20428;-69
2022/06/26 11:21:27;;;;;;;7.70;5.70;;;;;;;35.23;30.78;101067.94;5056134;28;20541;-68
2022/06/26 11:23:53;;;;;;;6.93;5.33;;;;;;;34.75;30.76;101074.88;5040222;28;20446;-69
2022/06/26 11:26:20;;;;;;;5.90;5.50;;;;;;;34.63;31.39;101077.78;5054548;28;20451;-70
2022/06/26 11:28:54;;;;;;;6.33;5.80;;;;;;;35.34;30.86;101072.41;5056737;28;20506;-70
2022/06/26 11:31:21;;;;;;;6.53;5.97;;;;;;;35.03;32.18;101068.88;5056505;28;20427;-70